sensor_id;sensor_type;location;lat;lon;timestamp;P1;durP1;ratioP1;P2;durP2;ratioP2
5585;SDS011;2815;54.094;12.112;2023-03-23T00:02:19;5.93;;;3.30;;
5585;SDS011;2815;54.094;12.112;2023-03-23T00:04:49;8.85;;;3.58;;
5585;SDS011;2815;54.094;12.112;2023-03-23T00:07:16;7.25;;;3.10;;
5585;SDS011;2815;54.094;12.112;2023-03-23T00:09:48;9.73;;;3.28;;
5585;SDS011;2815;54.094;12.112;2023-03-23T00:12:19;7.40;;;3.20;;
5585;SDS011;2815;54.094;12.112;2023-03-23T00:14:58;4.25;;;2.80;;
5585;SDS011;2815;54.094;12.112;2023-03-23T00:17:25;6.63;;;3.40;;
5585;SDS011;2815;54.094;12.112;2023-03-23T00:19:52;9.82;;;3.00;;
5585;SDS011;2815;54.094;12.112;2023-03-23T00:22:19;6.13;;;3.13;;
5585;SDS011;2815;54.094;12.112;2023-03-23T00:24:48;6.45;;;2.97;;
5585;SDS011;2815;54.094;12.112;2023-03-23T00:27:15;8.35;;;3.05;;
5585;SDS011;2815;54.094;12.112;2023-03-23T00:29:42;5.80;;;3.05;;
5585;SDS011;2815;54.094;12.112;2023-03-23T00:32:11;7.22;;;3.17;;
5585;SDS011;2815;54.094;12.112;2023-03-23T00:34:39;4.85;;;2.65;;
5585;SDS011;2815;54.094;12.112;2023-03-23T00:37:08;5.00;;;2.78;;
5585;SDS011;2815;54.094;12.112;2023-03-23T00:39:37;8.07;;;3.10;;
5585;SDS011;2815;54.094;12.112;2023-03-23T00:42:05;8.70;;;2.60;;
5585;SDS011;2815;54.094;12.112;2023-03-23T00:44:34;4.88;;;2.70;;
5585;SDS011;2815;54.094;12.112;2023-03-23T00:47:01;6.55;;;2.67;;
5585;SDS011;2815;54.094;12.112;2023-03-23T00:49:30;6.00;;;2.70;;
5585;SDS011;2815;54.094;12.112;2023-03-23T00:52:00;5.25;;;2.40;;
5585;SDS011;2815;54.094;12.112;2023-03-23T00:54:27;5.55;;;2.42;;
5585;SDS011;2815;54.094;12.112;2023-03-23T00:56:54;4.38;;;2.30;;
5585;SDS011;2815;54.094;12.112;2023-03-23T00:59:23;5.22;;;2.60;;
5585;SDS011;2815;54.094;12.112;2023-03-23T01:01:50;8.98;;;2.55;;
5585;SDS011;2815;54.094;12.112;2023-03-23T01:04:18;5.22;;;2.55;;
5585;SDS011;2815;54.094;12.112;2023-03-23T01:06:48;6.03;;;2.28;;
5585;SDS011;2815;54.094;12.112;2023-03-23T01:09:16;7.80;;;2.75;;
5585;SDS011;2815;54.094;12.112;2023-03-23T01:11:47;3.95;;;2.10;;
5585;SDS011;2815;54.094;12.112;2023-03-23T01:14:15;7.85;;;2.65;;
5585;SDS011;2815;54.094;12.112;2023-03-23T01:16:45;7.05;;;2.83;;
5585;SDS011;2815;54.094;12.112;2023-03-23T01:19:12;4.90;;;2.30;;
5585;SDS011;2815;54.094;12.112;2023-03-23T01:21:40;6.40;;;2.55;;
5585;SDS011;2815;54.094;12.112;2023-03-23T01:24:07;6.13;;;2.72;;
5585;SDS011;2815;54.094;12.112;2023-03-23T01:26:34;3.70;;;2.25;;
5585;SDS011;2815;54.094;12.112;2023-03-23T01:29:01;3.85;;;2.30;;
5585;SDS011;2815;54.094;12.112;2023-03-23T01:31:28;6.75;;;2.90;;
5585;SDS011;2815;54.094;12.112;2023-03-23T01:33:56;6.65;;;2.80;;
5585;SDS011;2815;54.094;12.112;2023-03-23T01:36:24;6.88;;;3.00;;
5585;SDS011;2815;54.094;12.112;2023-03-23T01:38:58;5.78;;;2.88;;
5585;SDS011;2815;54.094;12.112;2023-03-23T01:41:26;3.40;;;2.55;;
5585;SDS011;2815;54.094;12.112;2023-03-23T01:43:57;4.18;;;2.80;;
5585;SDS011;2815;54.094;12.112;2023-03-23T01:46:30;6.57;;;2.58;;
5585;SDS011;2815;54.094;12.112;2023-03-23T01:49:00;7.30;;;2.72;;
5585;SDS011;2815;54.094;12.112;2023-03-23T01:51:31;6.20;;;3.10;;
5585;SDS011;2815;54.094;12.112;2023-03-23T01:54:00;6.22;;;3.08;;
5585;SDS011;2815;54.094;12.112;2023-03-23T01:56:31;11.65;;;3.33;;
5585;SDS011;2815;54.094;12.112;2023-03-23T01:59:04;6.55;;;3.58;;
5585;SDS011;2815;54.094;12.112;2023-03-23T02:01:31;7.13;;;3.20;;
5585;SDS011;2815;54.094;12.112;2023-03-23T02:04:07;7.75;;;3.40;;
5585;SDS011;2815;54.094;12.112;2023-03-23T02:06:35;6.88;;;3.55;;
5585;SDS011;2815;54.094;12.112;2023-03-23T02:09:22;8.93;;;3.75;;
5585;SDS011;2815;54.094;12.112;2023-03-23T02:11:49;8.48;;;3.30;;
5585;SDS011;2815;54.094;12.112;2023-03-23T02:19:02;7.47;;;3.15;;
5585;SDS011;2815;54.094;12.112;2023-03-23T02:24:36;11.80;;;4.15;;
5585;SDS011;2815;54.094;12.112;2023-03-23T02:27:08;9.55;;;3.28;;
5585;SDS011;2815;54.094;12.112;2023-03-23T02:35:41;7.32;;;3.67;;
5585;SDS011;2815;54.094;12.112;2023-03-23T02:38:12;6.75;;;3.72;;
5585;SDS011;2815;54.094;12.112;2023-03-23T02:40:42;6.13;;;3.95;;
5585;SDS011;2815;54.094;12.112;2023-03-23T02:43:11;6.75;;;3.58;;
5585;SDS011;2815;54.094;12.112;2023-03-23T02:45:40;12.73;;;4.47;;
5585;SDS011;2815;54.094;12.112;2023-03-23T02:48:08;7.57;;;3.85;;
5585;SDS011;2815;54.094;12.112;2023-03-23T02:50:37;7.35;;;4.25;;
5585;SDS011;2815;54.094;12.112;2023-03-23T02:53:05;6.80;;;3.97;;
5585;SDS011;2815;54.094;12.112;2023-03-23T02:55:35;7.43;;;4.05;;
5585;SDS011;2815;54.094;12.112;2023-03-23T02:58:10;8.05;;;4.63;;
5585;SDS011;2815;54.094;12.112;2023-03-23T03:00:39;11.32;;;5.57;;
5585;SDS011;2815;54.094;12.112;2023-03-23T03:03:09;9.10;;;4.70;;
5585;SDS011;2815;54.094;12.112;2023-03-23T03:05:40;10.93;;;5.10;;
5585;SDS011;2815;54.094;12.112;2023-03-23T03:08:15;10.43;;;5.20;;
5585;SDS011;2815;54.094;12.112;2023-03-23T03:10:49;13.48;;;5.65;;
5585;SDS011;2815;54.094;12.112;2023-03-23T03:13:21;8.13;;;4.60;;
5585;SDS011;2815;54.094;12.112;2023-03-23T03:15:53;10.35;;;4.82;;
5585;SDS011;2815;54.094;12.112;2023-03-23T03:18:24;8.50;;;4.50;;
5585;SDS011;2815;54.094;12.112;2023-03-23T03:20:54;8.60;;;5.10;;
5585;SDS011;2815;54.094;12.112;2023-03-23T03:23:23;8.98;;;5.03;;
5585;SDS011;2815;54.094;12.112;2023-03-23T03:25:52;9.27;;;5.03;;
5585;SDS011;2815;54.094;12.112;2023-03-23T03:28:32;9.77;;;4.90;;
5585;SDS011;2815;54.094;12.112;2023-03-23T03:31:01;10.15;;;5.45;;
5585;SDS011;2815;54.094;12.112;2023-03-23T03:33:28;7.82;;;4.78;;
5585;SDS011;2815;54.094;12.112;2023-03-23T03:36:01;7.68;;;5.03;;
5585;SDS011;2815;54.094;12.112;2023-03-23T03:38:29;10.82;;;5.38;;
5585;SDS011;2815;54.094;12.112;2023-03-23T03:40:56;10.00;;;5.45;;
5585;SDS011;2815;54.094;12.112;2023-03-23T03:43:23;13.75;;;5.50;;
5585;SDS011;2815;54.094;12.112;2023-03-23T03:45:50;8.02;;;4.85;;
5585;SDS011;2815;54.094;12.112;2023-03-23T03:48:17;10.68;;;5.45;;
5585;SDS011;2815;54.094;12.112;2023-03-23T03:50:44;9.13;;;5.22;;
5585;SDS011;2815;54.094;12.112;2023-03-23T03:53:13;9.10;;;5.22;;
5585;SDS011;2815;54.094;12.112;2023-03-23T03:55:41;12.05;;;5.50;;
5585;SDS011;2815;54.094;12.112;2023-03-23T03:58:14;12.18;;;5.47;;
5585;SDS011;2815;54.094;12.112;2023-03-23T04:01:05;9.73;;;5.13;;
5585;SDS011;2815;54.094;12.112;2023-03-23T04:03:36;11.10;;;5.35;;
5585;SDS011;2815;54.094;12.112;2023-03-23T04:06:14;8.30;;;5.55;;
5585;SDS011;2815;54.094;12.112;2023-03-23T04:08:43;12.85;;;5.70;;
5585;SDS011;2815;54.094;12.112;2023-03-23T04:11:11;10.23;;;5.47;;
5585;SDS011;2815;54.094;12.112;2023-03-23T04:13:39;12.38;;;6.25;;
5585;SDS011;2815;54.094;12.112;2023-03-23T04:16:16;10.48;;;5.72;;
5585;SDS011;2815;54.094;12.112;2023-03-23T04:18:44;10.32;;;5.32;;
5585;SDS011;2815;54.094;12.112;2023-03-23T04:21:14;7.28;;;4.50;;
5585;SDS011;2815;54.094;12.112;2023-03-23T04:23:46;9.40;;;5.35;;
5585;SDS011;2815;54.094;12.112;2023-03-23T04:26:14;10.80;;;5.65;;
5585;SDS011;2815;54.094;12.112;2023-03-23T04:28:45;12.10;;;6.60;;
5585;SDS011;2815;54.094;12.112;2023-03-23T04:31:50;12.40;;;6.00;;
5585;SDS011;2815;54.094;12.112;2023-03-23T04:34:31;11.35;;;5.50;;
5585;SDS011;2815;54.094;12.112;2023-03-23T04:37:00;13.75;;;6.47;;
5585;SDS011;2815;54.094;12.112;2023-03-23T04:39:31;13.40;;;6.15;;
5585;SDS011;2815;54.094;12.112;2023-03-23T04:42:01;11.57;;;6.28;;
5585;SDS011;2815;54.094;12.112;2023-03-23T04:44:47;12.90;;;6.15;;
5585;SDS011;2815;54.094;12.112;2023-03-23T04:47:25;11.27;;;6.20;;
5585;SDS011;2815;54.094;12.112;2023-03-23T04:49:57;12.65;;;6.20;;
5585;SDS011;2815;54.094;12.112;2023-03-23T04:52:36;16.40;;;6.18;;
5585;SDS011;2815;54.094;12.112;2023-03-23T04:55:08;8.57;;;5.32;;
5585;SDS011;2815;54.094;12.112;2023-03-23T04:57:36;10.38;;;6.45;;
5585;SDS011;2815;54.094;12.112;2023-03-23T05:00:22;10.73;;;6.50;;
5585;SDS011;2815;54.094;12.112;2023-03-23T05:02:53;9.70;;;6.20;;
5585;SDS011;2815;54.094;12.112;2023-03-23T05:05:24;13.60;;;6.40;;
5585;SDS011;2815;54.094;12.112;2023-03-23T05:07:55;9.07;;;5.78;;
5585;SDS011;2815;54.094;12.112;2023-03-23T05:10:25;8.65;;;6.20;;
5585;SDS011;2815;54.094;12.112;2023-03-23T05:12:57;13.07;;;6.28;;
5585;SDS011;2815;54.094;12.112;2023-03-23T05:15:24;9.30;;;5.57;;
5585;SDS011;2815;54.094;12.112;2023-03-23T05:17:51;8.95;;;5.78;;
5585;SDS011;2815;54.094;12.112;2023-03-23T05:20:20;13.93;;;6.65;;
5585;SDS011;2815;54.094;12.112;2023-03-23T05:22:49;7.28;;;4.55;;
5585;SDS011;2815;54.094;12.112;2023-03-23T05:25:21;8.52;;;5.72;;
5585;SDS011;2815;54.094;12.112;2023-03-23T05:27:59;13.27;;;5.53;;
5585;SDS011;2815;54.094;12.112;2023-03-23T05:30:40;14.98;;;7.43;;
5585;SDS011;2815;54.094;12.112;2023-03-23T05:33:10;10.60;;;6.63;;
5585;SDS011;2815;54.094;12.112;2023-03-23T05:36:03;13.20;;;7.35;;
5585;SDS011;2815;54.094;12.112;2023-03-23T05:38:47;12.30;;;7.70;;
5585;SDS011;2815;54.094;12.112;2023-03-23T05:41:16;11.30;;;6.60;;
5585;SDS011;2815;54.094;12.112;2023-03-23T05:43:44;9.30;;;5.32;;
5585;SDS011;2815;54.094;12.112;2023-03-23T05:46:18;15.85;;;7.53;;
5585;SDS011;2815;54.094;12.112;2023-03-23T05:48:46;11.63;;;7.88;;
5585;SDS011;2815;54.094;12.112;2023-03-23T05:51:16;12.13;;;7.10;;
5585;SDS011;2815;54.094;12.112;2023-03-23T05:53:44;9.15;;;6.93;;
5585;SDS011;2815;54.094;12.112;2023-03-23T05:56:14;11.98;;;7.03;;
5585;SDS011;2815;54.094;12.112;2023-03-23T05:59:05;13.30;;;7.65;;
5585;SDS011;2815;54.094;12.112;2023-03-23T06:01:34;10.10;;;6.63;;
5585;SDS011;2815;54.094;12.112;2023-03-23T06:04:01;11.15;;;6.97;;
5585;SDS011;2815;54.094;12.112;2023-03-23T06:06:38;12.05;;;7.47;;
5585;SDS011;2815;54.094;12.112;2023-03-23T06:09:09;17.15;;;8.25;;
5585;SDS011;2815;54.094;12.112;2023-03-23T06:11:59;13.18;;;7.75;;
5585;SDS011;2815;54.094;12.112;2023-03-23T06:14:38;13.93;;;7.80;;
5585;SDS011;2815;54.094;12.112;2023-03-23T06:17:06;10.55;;;7.10;;
5585;SDS011;2815;54.094;12.112;2023-03-23T06:19:33;12.80;;;7.82;;
5585;SDS011;2815;54.094;12.112;2023-03-23T06:22:07;15.95;;;8.10;;
5585;SDS011;2815;54.094;12.112;2023-03-23T06:24:52;9.85;;;6.75;;
5585;SDS011;2815;54.094;12.112;2023-03-23T06:27:27;10.32;;;7.00;;
5585;SDS011;2815;54.094;12.112;2023-03-23T06:29:55;15.77;;;7.22;;
5585;SDS011;2815;54.094;12.112;2023-03-23T06:32:23;11.63;;;7.38;;
5585;SDS011;2815;54.094;12.112;2023-03-23T06:34:51;14.63;;;7.75;;
5585;SDS011;2815;54.094;12.112;2023-03-23T06:37:41;18.90;;;8.32;;
5585;SDS011;2815;54.094;12.112;2023-03-23T06:40:28;11.65;;;6.78;;
5585;SDS011;2815;54.094;12.112;2023-03-23T06:42:56;16.13;;;8.55;;
5585;SDS011;2815;54.094;12.112;2023-03-23T06:45:43;13.57;;;7.97;;
5585;SDS011;2815;54.094;12.112;2023-03-23T06:48:42;13.95;;;8.25;;
5585;SDS011;2815;54.094;12.112;2023-03-23T06:51:14;12.95;;;8.32;;
5585;SDS011;2815;54.094;12.112;2023-03-23T06:53:45;12.75;;;8.27;;
5585;SDS011;2815;54.094;12.112;2023-03-23T06:56:13;11.50;;;6.88;;
5585;SDS011;2815;54.094;12.112;2023-03-23T06:58:41;15.18;;;8.48;;
5585;SDS011;2815;54.094;12.112;2023-03-23T07:01:12;14.02;;;7.50;;
5585;SDS011;2815;54.094;12.112;2023-03-23T07:03:48;14.43;;;7.90;;
5585;SDS011;2815;54.094;12.112;2023-03-23T07:06:22;17.50;;;8.27;;
5585;SDS011;2815;54.094;12.112;2023-03-23T07:08:55;12.07;;;7.78;;
5585;SDS011;2815;54.094;12.112;2023-03-23T07:11:25;10.73;;;8.13;;
5585;SDS011;2815;54.094;12.112;2023-03-23T07:13:53;12.77;;;7.88;;
5585;SDS011;2815;54.094;12.112;2023-03-23T07:16:21;10.60;;;6.95;;
5585;SDS011;2815;54.094;12.112;2023-03-23T07:18:50;9.23;;;5.78;;
5585;SDS011;2815;54.094;12.112;2023-03-23T07:21:17;7.57;;;5.68;;
5585;SDS011;2815;54.094;12.112;2023-03-23T07:23:44;12.90;;;6.45;;
5585;SDS011;2815;54.094;12.112;2023-03-23T07:26:17;11.00;;;6.55;;
5585;SDS011;2815;54.094;12.112;2023-03-23T07:28:49;23.45;;;9.30;;
5585;SDS011;2815;54.094;12.112;2023-03-23T07:31:25;21.33;;;7.97;;
5585;SDS011;2815;54.094;12.112;2023-03-23T07:33:54;22.13;;;10.05;;
5585;SDS011;2815;54.094;12.112;2023-03-23T07:36:38;14.27;;;6.78;;
5585;SDS011;2815;54.094;12.112;2023-03-23T07:39:09;10.45;;;6.45;;
5585;SDS011;2815;54.094;12.112;2023-03-23T07:41:38;11.00;;;6.32;;
5585;SDS011;2815;54.094;12.112;2023-03-23T07:44:16;9.35;;;5.70;;
5585;SDS011;2815;54.094;12.112;2023-03-23T07:46:44;8.70;;;5.35;;
5585;SDS011;2815;54.094;12.112;2023-03-23T07:49:14;10.45;;;5.35;;
5585;SDS011;2815;54.094;12.112;2023-03-23T07:54:14;6.43;;;4.70;;
5585;SDS011;2815;54.094;12.112;2023-03-23T07:57:02;6.40;;;3.95;;
5585;SDS011;2815;54.094;12.112;2023-03-23T07:59:33;7.65;;;5.20;;
5585;SDS011;2815;54.094;12.112;2023-03-23T08:02:01;9.25;;;4.70;;
5585;SDS011;2815;54.094;12.112;2023-03-23T08:04:47;6.53;;;4.05;;
5585;SDS011;2815;54.094;12.112;2023-03-23T08:07:20;7.38;;;4.05;;
5585;SDS011;2815;54.094;12.112;2023-03-23T08:10:06;5.40;;;3.67;;
5585;SDS011;2815;54.094;12.112;2023-03-23T08:13:02;4.30;;;2.97;;
5585;SDS011;2815;54.094;12.112;2023-03-23T08:15:53;6.90;;;3.83;;
5585;SDS011;2815;54.094;12.112;2023-03-23T08:18:33;5.63;;;3.25;;
5585;SDS011;2815;54.094;12.112;2023-03-23T08:21:03;7.22;;;3.25;;
5585;SDS011;2815;54.094;12.112;2023-03-23T08:23:51;5.28;;;3.20;;
5585;SDS011;2815;54.094;12.112;2023-03-23T08:26:42;3.58;;;2.55;;
5585;SDS011;2815;54.094;12.112;2023-03-23T08:29:28;8.95;;;2.70;;
5585;SDS011;2815;54.094;12.112;2023-03-23T08:32:02;10.85;;;3.33;;
5585;SDS011;2815;54.094;12.112;2023-03-23T08:34:42;4.95;;;3.10;;
5585;SDS011;2815;54.094;12.112;2023-03-23T08:37:30;6.82;;;3.08;;
5585;SDS011;2815;54.094;12.112;2023-03-23T08:40:20;3.83;;;2.30;;
5585;SDS011;2815;54.094;12.112;2023-03-23T08:42:57;4.22;;;1.85;;
5585;SDS011;2815;54.094;12.112;2023-03-23T08:45:43;3.03;;;2.00;;
5585;SDS011;2815;54.094;12.112;2023-03-23T08:48:09;4.80;;;2.28;;
5585;SDS011;2815;54.094;12.112;2023-03-23T08:51:04;4.25;;;2.30;;
5585;SDS011;2815;54.094;12.112;2023-03-23T08:53:55;2.35;;;1.80;;
5585;SDS011;2815;54.094;12.112;2023-03-23T08:56:58;5.28;;;2.35;;
5585;SDS011;2815;54.094;12.112;2023-03-23T08:59:46;3.10;;;2.17;;
5585;SDS011;2815;54.094;12.112;2023-03-23T09:02:40;3.53;;;2.42;;
5585;SDS011;2815;54.094;12.112;2023-03-23T09:05:20;3.72;;;2.67;;
5585;SDS011;2815;54.094;12.112;2023-03-23T09:08:09;3.30;;;2.50;;
5585;SDS011;2815;54.094;12.112;2023-03-23T09:10:37;4.22;;;2.45;;
5585;SDS011;2815;54.094;12.112;2023-03-23T09:13:04;2.35;;;1.55;;
5585;SDS011;2815;54.094;12.112;2023-03-23T09:15:31;3.75;;;2.25;;
5585;SDS011;2815;54.094;12.112;2023-03-23T09:17:58;5.60;;;2.50;;
5585;SDS011;2815;54.094;12.112;2023-03-23T09:20:27;4.32;;;2.20;;
5585;SDS011;2815;54.094;12.112;2023-03-23T09:22:54;4.35;;;2.35;;
5585;SDS011;2815;54.094;12.112;2023-03-23T09:25:24;3.80;;;2.40;;
5585;SDS011;2815;54.094;12.112;2023-03-23T09:27:52;3.67;;;2.30;;
5585;SDS011;2815;54.094;12.112;2023-03-23T09:30:22;3.47;;;1.58;;
5585;SDS011;2815;54.094;12.112;2023-03-23T09:32:50;2.85;;;2.03;;
5585;SDS011;2815;54.094;12.112;2023-03-23T09:35:16;2.33;;;1.52;;
5585;SDS011;2815;54.094;12.112;2023-03-23T09:37:46;3.88;;;2.20;;
5585;SDS011;2815;54.094;12.112;2023-03-23T09:40:15;7.03;;;2.58;;
5585;SDS011;2815;54.094;12.112;2023-03-23T09:42:50;4.85;;;2.50;;
5585;SDS011;2815;54.094;12.112;2023-03-23T09:45:30;2.60;;;1.92;;
5585;SDS011;2815;54.094;12.112;2023-03-23T09:48:05;4.65;;;1.60;;
5585;SDS011;2815;54.094;12.112;2023-03-23T09:50:41;3.13;;;1.95;;
5585;SDS011;2815;54.094;12.112;2023-03-23T09:53:10;3.28;;;2.10;;
5585;SDS011;2815;54.094;12.112;2023-03-23T09:55:40;4.35;;;2.30;;
5585;SDS011;2815;54.094;12.112;2023-03-23T09:58:11;2.25;;;1.50;;
5585;SDS011;2815;54.094;12.112;2023-03-23T10:00:44;2.10;;;1.42;;
5585;SDS011;2815;54.094;12.112;2023-03-23T10:03:26;2.10;;;0.88;;
5585;SDS011;2815;54.094;12.112;2023-03-23T10:05:54;1.17;;;0.98;;
5585;SDS011;2815;54.094;12.112;2023-03-23T10:08:22;4.13;;;1.00;;
5585;SDS011;2815;54.094;12.112;2023-03-23T10:10:54;6.10;;;1.30;;
5585;SDS011;2815;54.094;12.112;2023-03-23T10:13:35;2.22;;;1.50;;
5585;SDS011;2815;54.094;12.112;2023-03-23T10:16:11;2.95;;;1.00;;
5585;SDS011;2815;54.094;12.112;2023-03-23T10:18:43;4.22;;;0.90;;
5585;SDS011;2815;54.094;12.112;2023-03-23T10:21:14;4.68;;;1.10;;
5585;SDS011;2815;54.094;12.112;2023-03-23T10:23:51;5.85;;;1.50;;
5585;SDS011;2815;54.094;12.112;2023-03-23T10:26:33;2.83;;;0.85;;
5585;SDS011;2815;54.094;12.112;2023-03-23T10:29:15;0.90;;;0.70;;
5585;SDS011;2815;54.094;12.112;2023-03-23T10:31:45;6.80;;;1.55;;
5585;SDS011;2815;54.094;12.112;2023-03-23T10:34:17;2.35;;;0.93;;
5585;SDS011;2815;54.094;12.112;2023-03-23T10:36:51;3.88;;;1.02;;
5585;SDS011;2815;54.094;12.112;2023-03-23T10:39:24;4.88;;;1.10;;
5585;SDS011;2815;54.094;12.112;2023-03-23T10:41:54;5.30;;;0.90;;
5585;SDS011;2815;54.094;12.112;2023-03-23T10:44:23;3.67;;;1.10;;
5585;SDS011;2815;54.094;12.112;2023-03-23T10:46:53;3.72;;;1.08;;
5585;SDS011;2815;54.094;12.112;2023-03-23T10:49:24;1.98;;;0.85;;
5585;SDS011;2815;54.094;12.112;2023-03-23T10:51:56;2.03;;;1.00;;
5585;SDS011;2815;54.094;12.112;2023-03-23T10:54:26;6.47;;;1.38;;
5585;SDS011;2815;54.094;12.112;2023-03-23T10:56:54;1.65;;;0.80;;
5585;SDS011;2815;54.094;12.112;2023-03-23T10:59:26;2.90;;;0.77;;
5585;SDS011;2815;54.094;12.112;2023-03-23T11:01:55;5.22;;;1.00;;
5585;SDS011;2815;54.094;12.112;2023-03-23T11:04:23;7.28;;;1.45;;
5585;SDS011;2815;54.094;12.112;2023-03-23T11:06:51;4.15;;;1.20;;
5585;SDS011;2815;54.094;12.112;2023-03-23T11:09:20;7.60;;;0.85;;
5585;SDS011;2815;54.094;12.112;2023-03-23T11:11:48;6.22;;;2.13;;
5585;SDS011;2815;54.094;12.112;2023-03-23T11:14:17;2.65;;;1.10;;
5585;SDS011;2815;54.094;12.112;2023-03-23T11:16:51;4.35;;;1.50;;
5585;SDS011;2815;54.094;12.112;2023-03-23T11:19:21;3.03;;;1.25;;
5585;SDS011;2815;54.094;12.112;2023-03-23T11:21:50;2.88;;;1.30;;
5585;SDS011;2815;54.094;12.112;2023-03-23T11:24:21;2.30;;;1.08;;
5585;SDS011;2815;54.094;12.112;2023-03-23T11:26:48;2.80;;;1.60;;
5585;SDS011;2815;54.094;12.112;2023-03-23T11:29:17;4.70;;;1.45;;
5585;SDS011;2815;54.094;12.112;2023-03-23T11:31:46;4.25;;;1.20;;
5585;SDS011;2815;54.094;12.112;2023-03-23T11:34:16;1.00;;;0.82;;
5585;SDS011;2815;54.094;12.112;2023-03-23T11:36:47;1.48;;;1.00;;
5585;SDS011;2815;54.094;12.112;2023-03-23T11:39:19;4.40;;;1.25;;
5585;SDS011;2815;54.094;12.112;2023-03-23T11:41:47;4.68;;;1.77;;
5585;SDS011;2815;54.094;12.112;2023-03-23T11:44:14;3.28;;;1.40;;
5585;SDS011;2815;54.094;12.112;2023-03-23T11:46:48;6.03;;;1.50;;
5585;SDS011;2815;54.094;12.112;2023-03-23T11:49:26;3.50;;;1.60;;
5585;SDS011;2815;54.094;12.112;2023-03-23T11:52:01;2.53;;;1.38;;
5585;SDS011;2815;54.094;12.112;2023-03-23T11:54:31;2.05;;;1.08;;
5585;SDS011;2815;54.094;12.112;2023-03-23T11:57:01;3.90;;;1.55;;
5585;SDS011;2815;54.094;12.112;2023-03-23T11:59:28;6.07;;;1.83;;
5585;SDS011;2815;54.094;12.112;2023-03-23T12:02:03;6.38;;;1.65;;
5585;SDS011;2815;54.094;12.112;2023-03-23T12:04:50;3.83;;;1.27;;
5585;SDS011;2815;54.094;12.112;2023-03-23T12:07:28;5.70;;;1.57;;
5585;SDS011;2815;54.094;12.112;2023-03-23T12:10:04;6.00;;;1.77;;
5585;SDS011;2815;54.094;12.112;2023-03-23T12:12:40;4.90;;;1.50;;
5585;SDS011;2815;54.094;12.112;2023-03-23T12:15:14;7.20;;;1.30;;
5585;SDS011;2815;54.094;12.112;2023-03-23T12:17:49;2.85;;;1.48;;
5585;SDS011;2815;54.094;12.112;2023-03-23T12:20:21;6.25;;;1.48;;
5585;SDS011;2815;54.094;12.112;2023-03-23T12:22:58;4.88;;;1.58;;
5585;SDS011;2815;54.094;12.112;2023-03-23T12:25:40;4.95;;;1.70;;
5585;SDS011;2815;54.094;12.112;2023-03-23T12:28:16;6.45;;;1.25;;
5585;SDS011;2815;54.094;12.112;2023-03-23T12:30:49;5.15;;;1.35;;
5585;SDS011;2815;54.094;12.112;2023-03-23T12:33:24;2.80;;;1.08;;
5585;SDS011;2815;54.094;12.112;2023-03-23T12:35:59;5.72;;;1.85;;
5585;SDS011;2815;54.094;12.112;2023-03-23T12:38:36;3.97;;;1.30;;
5585;SDS011;2815;54.094;12.112;2023-03-23T12:41:15;5.72;;;1.77;;
5585;SDS011;2815;54.094;12.112;2023-03-23T12:43:47;4.47;;;1.13;;
5585;SDS011;2815;54.094;12.112;2023-03-23T12:46:22;3.65;;;1.30;;
5585;SDS011;2815;54.094;12.112;2023-03-23T12:48:58;6.28;;;1.30;;
5585;SDS011;2815;54.094;12.112;2023-03-23T12:51:30;7.28;;;1.40;;
5585;SDS011;2815;54.094;12.112;2023-03-23T12:54:03;3.42;;;1.27;;
5585;SDS011;2815;54.094;12.112;2023-03-23T12:56:35;7.97;;;1.65;;
5585;SDS011;2815;54.094;12.112;2023-03-23T12:59:07;6.28;;;1.70;;
5585;SDS011;2815;54.094;12.112;2023-03-23T13:01:40;6.95;;;1.48;;
5585;SDS011;2815;54.094;12.112;2023-03-23T13:04:11;2.15;;;1.20;;
5585;SDS011;2815;54.094;12.112;2023-03-23T13:06:43;5.85;;;1.60;;
5585;SDS011;2815;54.094;12.112;2023-03-23T13:09:14;5.70;;;1.30;;
5585;SDS011;2815;54.094;12.112;2023-03-23T13:11:43;7.13;;;1.65;;
5585;SDS011;2815;54.094;12.112;2023-03-23T13:14:15;3.53;;;1.20;;
5585;SDS011;2815;54.094;12.112;2023-03-23T13:16:49;3.70;;;1.65;;
5585;SDS011;2815;54.094;12.112;2023-03-23T13:19:24;7.65;;;1.40;;
5585;SDS011;2815;54.094;12.112;2023-03-23T13:21:55;9.80;;;1.95;;
5585;SDS011;2815;54.094;12.112;2023-03-23T13:24:29;6.85;;;1.40;;
5585;SDS011;2815;54.094;12.112;2023-03-23T13:26:59;4.97;;;1.35;;
5585;SDS011;2815;54.094;12.112;2023-03-23T13:29:33;3.17;;;0.98;;
5585;SDS011;2815;54.094;12.112;2023-03-23T13:32:04;8.30;;;1.30;;
5585;SDS011;2815;54.094;12.112;2023-03-23T13:37:02;6.13;;;1.52;;
5585;SDS011;2815;54.094;12.112;2023-03-23T13:39:31;6.05;;;1.17;;
5585;SDS011;2815;54.094;12.112;2023-03-23T13:42:01;6.88;;;1.30;;
5585;SDS011;2815;54.094;12.112;2023-03-23T13:44:43;4.43;;;1.20;;
5585;SDS011;2815;54.094;12.112;2023-03-23T13:47:24;4.30;;;1.50;;
5585;SDS011;2815;54.094;12.112;2023-03-23T13:52:23;7.68;;;1.42;;
5585;SDS011;2815;54.094;12.112;2023-03-23T13:54:51;3.00;;;0.85;;
5585;SDS011;2815;54.094;12.112;2023-03-23T13:57:36;9.32;;;1.80;;
5585;SDS011;2815;54.094;12.112;2023-03-23T14:00:22;6.05;;;1.48;;
5585;SDS011;2815;54.094;12.112;2023-03-23T14:03:09;11.52;;;1.77;;
5585;SDS011;2815;54.094;12.112;2023-03-23T14:05:40;7.30;;;1.75;;
5585;SDS011;2815;54.094;12.112;2023-03-23T14:08:12;8.48;;;1.70;;
5585;SDS011;2815;54.094;12.112;2023-03-23T14:10:42;8.60;;;1.35;;
5585;SDS011;2815;54.094;12.112;2023-03-23T14:13:17;4.65;;;2.03;;
5585;SDS011;2815;54.094;12.112;2023-03-23T14:15:54;8.25;;;1.70;;
5585;SDS011;2815;54.094;12.112;2023-03-23T14:18:23;6.13;;;1.30;;
5585;SDS011;2815;54.094;12.112;2023-03-23T14:20:54;6.85;;;1.80;;
5585;SDS011;2815;54.094;12.112;2023-03-23T14:23:22;7.85;;;1.88;;
5585;SDS011;2815;54.094;12.112;2023-03-23T14:25:55;7.07;;;1.55;;
5585;SDS011;2815;54.094;12.112;2023-03-23T14:28:30;8.60;;;1.75;;
5585;SDS011;2815;54.094;12.112;2023-03-23T14:30:58;8.15;;;1.50;;
5585;SDS011;2815;54.094;12.112;2023-03-23T14:33:25;7.88;;;2.05;;
5585;SDS011;2815;54.094;12.112;2023-03-23T14:35:56;9.07;;;1.58;;
5585;SDS011;2815;54.094;12.112;2023-03-23T14:38:23;6.50;;;1.55;;
5585;SDS011;2815;54.094;12.112;2023-03-23T14:43:27;6.45;;;0.98;;
5585;SDS011;2815;54.094;12.112;2023-03-23T14:45:54;7.93;;;1.92;;
5585;SDS011;2815;54.094;12.112;2023-03-23T14:48:22;10.10;;;1.73;;
5585;SDS011;2815;54.094;12.112;2023-03-23T14:50:49;7.93;;;1.30;;
5585;SDS011;2815;54.094;12.112;2023-03-23T14:53:21;9.65;;;1.95;;
5585;SDS011;2815;54.094;12.112;2023-03-23T14:55:50;9.90;;;1.65;;
5585;SDS011;2815;54.094;12.112;2023-03-23T14:58:18;4.40;;;1.35;;
5585;SDS011;2815;54.094;12.112;2023-03-23T15:00:47;9.32;;;1.60;;
5585;SDS011;2815;54.094;12.112;2023-03-23T15:03:16;10.50;;;1.63;;
5585;SDS011;2815;54.094;12.112;2023-03-23T15:05:48;8.18;;;1.42;;
5585;SDS011;2815;54.094;12.112;2023-03-23T15:08:20;11.40;;;2.20;;
5585;SDS011;2815;54.094;12.112;2023-03-23T15:10:51;9.88;;;1.75;;
5585;SDS011;2815;54.094;12.112;2023-03-23T15:13:23;8.63;;;1.73;;
5585;SDS011;2815;54.094;12.112;2023-03-23T15:15:51;10.60;;;1.70;;
5585;SDS011;2815;54.094;12.112;2023-03-23T15:18:25;5.57;;;1.80;;
5585;SDS011;2815;54.094;12.112;2023-03-23T15:20:56;5.60;;;1.70;;
5585;SDS011;2815;54.094;12.112;2023-03-23T15:23:27;13.27;;;1.95;;
5585;SDS011;2815;54.094;12.112;2023-03-23T15:25:55;8.52;;;1.75;;
5585;SDS011;2815;54.094;12.112;2023-03-23T15:28:28;8.43;;;1.48;;
5585;SDS011;2815;54.094;12.112;2023-03-23T15:30:56;8.68;;;1.90;;
5585;SDS011;2815;54.094;12.112;2023-03-23T15:33:24;8.95;;;1.70;;
5585;SDS011;2815;54.094;12.112;2023-03-23T15:35:54;9.82;;;1.95;;
5585;SDS011;2815;54.094;12.112;2023-03-23T15:38:22;4.70;;;1.70;;
5585;SDS011;2815;54.094;12.112;2023-03-23T15:40:52;6.40;;;1.70;;
5585;SDS011;2815;54.094;12.112;2023-03-23T15:43:22;7.57;;;1.40;;
5585;SDS011;2815;54.094;12.112;2023-03-23T15:45:54;3.88;;;1.50;;
5585;SDS011;2815;54.094;12.112;2023-03-23T15:48:25;11.30;;;1.80;;
5585;SDS011;2815;54.094;12.112;2023-03-23T15:50:52;8.52;;;1.70;;
5585;SDS011;2815;54.094;12.112;2023-03-23T15:53:23;6.43;;;1.63;;
5585;SDS011;2815;54.094;12.112;2023-03-23T15:55:55;7.60;;;1.95;;